createdAt,value
2019-02-03T00:00:02.318Z,163.30
2019-02-03T00:01:02.290Z,143.60
2019-02-03T00:02:02.266Z,155.50
2019-02-03T00:03:02.248Z,148.20
2019-02-03T00:04:02.230Z,148.20
2019-02-03T00:05:02.186Z,153.80
2019-02-03T00:06:02.158Z,142.00
2019-02-03T00:07:03.661Z,139.40
2019-02-03T00:08:02.115Z,145.30
2019-02-03T00:09:02.078Z,143.70
2019-02-03T00:10:02.058Z,157.30
2019-02-03T00:11:02.029Z,149.10
2019-02-03T00:12:02.129Z,150.20
2019-02-03T00:13:01.980Z,155.00
2019-02-03T00:14:01.945Z,156.00
2019-02-03T00:15:01.919Z,148.60
2019-02-03T00:16:01.893Z,155.80
2019-02-03T00:17:01.866Z,150.40
2019-02-03T00:18:01.843Z,150.40
2019-02-03T00:19:01.811Z,146.80
2019-02-03T00:20:01.788Z,154.20
2019-02-03T00:21:01.767Z,153.10
2019-02-03T00:22:01.742Z,154.00
2019-02-03T00:23:01.707Z,150.00
2019-02-03T00:24:01.685Z,156.40
2019-02-03T00:25:01.659Z,154.80
2019-02-03T00:26:01.628Z,152.00
2019-02-03T00:27:01.605Z,142.80
2019-02-03T00:28:01.580Z,153.50
2019-02-03T00:29:01.549Z,145.30
2019-02-03T00:30:01.520Z,138.40
2019-02-03T00:31:01.496Z,147.50
2019-02-03T00:32:01.470Z,147.40
2019-02-03T00:33:01.452Z,147.50
2019-02-03T00:34:01.415Z,147.60
2019-02-03T00:35:01.388Z,146.00
2019-02-03T00:36:01.361Z,137.30
2019-02-03T00:37:01.350Z,144.60
2019-02-03T00:38:01.368Z,147.40
2019-02-03T00:39:01.281Z,143.00
2019-02-03T00:40:01.291Z,145.10
2019-02-03T00:41:01.268Z,140.00
2019-02-03T00:42:01.205Z,148.00
2019-02-03T00:43:01.175Z,145.40
2019-02-03T00:44:01.155Z,145.50
2019-02-03T00:45:01.126Z,145.50
2019-02-03T00:46:01.103Z,138.00
2019-02-03T00:47:01.068Z,138.90
2019-02-03T00:48:01.046Z,133.90
2019-02-03T00:49:01.014Z,133.50
2019-02-03T00:50:00.987Z,132.30
2019-02-03T00:51:00.960Z,137.10
2019-02-03T00:52:00.936Z,136.70
2019-02-03T00:53:00.907Z,139.70
2019-02-03T00:54:00.881Z,141.30
2019-02-03T00:55:00.853Z,142.70
2019-02-03T00:56:00.828Z,133.00
2019-02-03T00:57:00.800Z,142.10
2019-02-03T00:58:00.777Z,139.30
2019-02-03T00:59:00.748Z,138.80
2019-02-03T01:00:00.850Z,137.30
2019-02-03T01:01:00.692Z,142.80
2019-02-03T01:02:00.667Z,135.80
2019-02-03T01:03:00.641Z,136.90
2019-02-03T01:04:00.613Z,151.30
2019-02-03T01:05:00.587Z,144.90
2019-02-03T01:06:00.559Z,137.20
2019-02-03T01:07:00.656Z,140.70
2019-02-03T01:08:00.507Z,144.80
2019-02-03T01:09:00.479Z,148.20
2019-02-03T01:10:00.463Z,135.30
2019-02-03T01:11:00.429Z,141.00
2019-02-03T01:12:00.400Z,140.90
2019-02-03T01:13:00.375Z,144.10
2019-02-03T01:14:00.368Z,158.30
2019-02-03T01:15:00.345Z,146.90
2019-02-03T01:16:00.295Z,144.70
2019-02-03T01:17:00.269Z,144.70
2019-02-03T01:18:00.244Z,141.40
2019-02-03T01:19:00.216Z,145.70
2019-02-03T01:20:00.309Z,143.90
2019-02-03T01:21:00.163Z,146.90
2019-02-03T01:22:00.134Z,145.90
2019-02-03T01:23:00.108Z,147.80
2019-02-03T01:24:00.080Z,147.80
2019-02-03T01:25:00.094Z,137.10
2019-02-03T01:26:00.037Z,140.50
2019-02-03T01:27:00.002Z,142.90
2019-02-03T01:27:59.974Z,138.30
2019-02-03T01:28:59.948Z,138.80
2019-02-03T01:30:00.009Z,143.70
2019-02-03T01:30:59.900Z,143.40
2019-02-03T01:31:59.877Z,144.90
2019-02-03T01:32:59.849Z,138.70
2019-02-03T01:33:59.816Z,132.80
2019-02-03T01:34:59.788Z,137.00
2019-02-03T01:35:59.760Z,144.40
2019-02-03T01:36:59.731Z,143.80
2019-02-03T01:37:59.705Z,137.70
2019-02-03T01:38:59.689Z,146.90
2019-02-03T01:39:59.654Z,140.20
2019-02-03T01:40:59.635Z,141.50
2019-02-03T01:41:59.599Z,141.20
2019-02-03T01:42:59.574Z,140.20
2019-02-03T01:43:59.548Z,145.60
2019-02-03T01:44:59.520Z,139.20
2019-02-03T01:45:59.550Z,142.20
2019-02-03T01:46:59.467Z,137.30
2019-02-03T01:47:59.442Z,151.90
2019-02-03T01:48:59.422Z,146.40
2019-02-03T01:49:59.395Z,150.10
2019-02-03T01:50:59.361Z,142.90
2019-02-03T01:51:59.338Z,139.40
2019-02-03T01:52:59.315Z,156.30
2019-02-03T01:53:59.281Z,149.00
2019-02-03T01:54:59.257Z,142.30
2019-02-03T01:55:59.229Z,138.50
2019-02-03T01:56:59.199Z,139.20
2019-02-03T01:57:59.182Z,144.90
2019-02-03T01:58:59.149Z,137.30
2019-02-03T01:59:59.122Z,136.40
2019-02-03T02:00:59.093Z,143.90
2019-02-03T02:01:59.067Z,138.60
2019-02-03T02:02:59.042Z,137.30
2019-02-03T02:03:59.108Z,138.50
2019-02-03T02:04:58.989Z,134.10
2019-02-03T02:05:58.970Z,133.30
2019-02-03T02:06:58.935Z,138.20
2019-02-03T02:07:58.907Z,138.80
2019-02-03T02:08:58.881Z,140.80
2019-02-03T02:09:59.007Z,135.00
2019-02-03T02:10:58.829Z,141.70
2019-02-03T02:11:58.802Z,150.60
2019-02-03T02:12:58.784Z,148.60
2019-02-03T02:13:58.749Z,148.30
2019-02-03T02:14:58.721Z,145.00
2019-02-03T02:15:58.703Z,151.30
2019-02-03T02:16:58.672Z,142.80
2019-02-03T02:17:58.639Z,148.50
2019-02-03T02:18:58.615Z,146.30
2019-02-03T02:19:58.596Z,151.50
2019-02-03T02:20:58.560Z,147.80
2019-02-03T02:21:58.533Z,150.70
2019-02-03T02:22:58.510Z,145.60
2019-02-03T02:23:58.480Z,138.90
2019-02-03T02:24:58.461Z,143.50
2019-02-03T02:25:58.425Z,140.10
2019-02-03T02:26:58.400Z,140.60
2019-02-03T02:27:58.372Z,141.70
2019-02-03T02:28:58.352Z,135.10
2019-02-03T02:29:58.316Z,130.60
2019-02-03T02:30:58.291Z,140.60
2019-02-03T02:31:58.264Z,140.70
2019-02-03T02:32:58.268Z,143.10
2019-02-03T02:33:58.210Z,139.60
2019-02-03T02:34:58.185Z,140.50
2019-02-03T02:35:58.165Z,137.60
2019-02-03T02:36:58.128Z,135.90
2019-02-03T02:38:06.204Z,136.30
2019-02-03T02:38:58.079Z,133.80
2019-02-03T02:39:58.055Z,137.70
2019-02-03T02:40:58.021Z,141.80
2019-02-03T02:41:57.994Z,136.70
2019-02-03T02:42:57.966Z,142.30
2019-02-03T02:43:57.941Z,141.60
2019-02-03T02:44:57.913Z,137.20
2019-02-03T02:45:57.886Z,140.60
2019-02-03T02:46:57.857Z,146.40
2019-02-03T02:47:57.831Z,145.80
2019-02-03T02:48:57.803Z,154.70
2019-02-03T02:49:57.777Z,147.10
2019-02-03T02:50:57.761Z,143.10
2019-02-03T02:51:57.723Z,157.40
2019-02-03T02:52:57.702Z,151.00
2019-02-03T02:53:59.024Z,155.30
2019-02-03T02:54:57.640Z,154.80
2019-02-03T02:55:57.621Z,149.80
2019-02-03T02:56:57.585Z,161.40
2019-02-03T02:57:57.557Z,163.10
2019-02-03T02:58:57.530Z,159.80
2019-02-03T02:59:57.503Z,163.60
2019-02-03T03:00:57.475Z,166.70
2019-02-03T03:01:57.451Z,161.20
2019-02-03T03:02:57.421Z,153.10
2019-02-03T03:03:57.394Z,165.50
2019-02-03T03:04:57.457Z,160.20
2019-02-03T03:05:57.336Z,161.70
2019-02-03T03:06:57.309Z,164.00
2019-02-03T03:07:57.282Z,166.10
2019-02-03T03:08:57.253Z,153.40
2019-02-03T03:09:57.226Z,164.20
2019-02-03T03:10:57.198Z,161.30
2019-02-03T03:11:57.173Z,167.50
2019-02-03T03:12:57.146Z,174.20
2019-02-03T03:13:57.117Z,164.50
2019-02-03T03:14:57.109Z,166.00
2019-02-03T03:15:57.061Z,164.20
2019-02-03T03:16:57.037Z,154.90
2019-02-03T03:17:57.009Z,170.00
2019-02-03T03:18:56.978Z,157.60
2019-02-03T03:19:56.952Z,170.60
2019-02-03T03:20:56.924Z,170.00
2019-02-03T03:21:56.895Z,150.60
2019-02-03T03:22:56.876Z,152.60
2019-02-03T03:23:56.845Z,157.20
2019-02-03T03:24:56.821Z,160.90
2019-02-03T03:25:56.791Z,151.80
2019-02-03T03:26:56.778Z,159.20
2019-02-03T03:27:56.730Z,161.10
2019-02-03T03:28:56.705Z,170.30
2019-02-03T03:29:56.682Z,174.70
2019-02-03T03:30:56.662Z,157.00
2019-02-03T03:31:56.621Z,158.40
2019-02-03T03:32:56.596Z,167.80
2019-02-03T03:33:56.573Z,167.30
2019-02-03T03:34:56.536Z,162.90
2019-02-03T03:35:56.518Z,162.50
2019-02-03T03:36:56.480Z,161.90
2019-02-03T03:37:56.455Z,167.40
2019-02-03T03:38:56.426Z,162.80
2019-02-03T03:39:56.396Z,166.20
2019-02-03T03:40:56.375Z,154.40
2019-02-03T03:41:56.345Z,163.80
2019-02-03T03:42:56.321Z,154.60
2019-02-03T03:43:56.289Z,159.60
2019-02-03T03:44:56.259Z,159.70
2019-02-03T03:45:56.232Z,162.00
2019-02-03T03:46:56.208Z,163.70
2019-02-03T03:47:56.175Z,154.10
2019-02-03T03:48:56.149Z,159.90
2019-02-03T03:49:56.118Z,161.80
2019-02-03T03:50:56.101Z,154.40
2019-02-03T03:51:56.178Z,148.80
2019-02-03T03:52:56.036Z,157.40
2019-02-03T03:53:56.010Z,154.50
2019-02-03T03:54:55.982Z,161.60
2019-02-03T03:55:55.955Z,157.40
2019-02-03T03:56:55.926Z,154.70
2019-02-03T03:57:55.906Z,156.20
2019-02-03T03:58:55.871Z,159.60
2019-02-03T03:59:55.841Z,151.50
2019-02-03T04:00:55.816Z,155.50
2019-02-03T04:01:55.791Z,151.20
2019-02-03T04:02:55.766Z,155.50
2019-02-03T04:03:55.730Z,150.00
2019-02-03T04:04:55.703Z,165.40
2019-02-03T04:05:55.683Z,156.80
2019-02-03T04:06:55.647Z,162.20
2019-02-03T04:07:55.669Z,151.80
2019-02-03T04:08:55.590Z,149.00
2019-02-03T04:09:55.566Z,150.80
2019-02-03T04:10:55.561Z,156.70
2019-02-03T04:11:55.511Z,150.80
2019-02-03T04:12:55.480Z,151.90
2019-02-03T04:13:55.452Z,152.30
2019-02-03T04:14:55.443Z,145.60
2019-02-03T04:15:55.402Z,131.70
2019-02-03T04:16:55.372Z,137.90
2019-02-03T04:17:55.343Z,134.20
2019-02-03T04:18:55.312Z,128.30
2019-02-03T04:19:55.287Z,141.40
2019-02-03T04:20:55.272Z,127.30
2019-02-03T04:21:55.261Z,127.80
2019-02-03T04:22:55.203Z,134.60
2019-02-03T04:23:55.176Z,124.80
2019-02-03T04:24:55.145Z,128.30
2019-02-03T04:25:55.121Z,134.40
2019-02-03T04:26:55.089Z,133.00
2019-02-03T04:27:55.063Z,135.30
2019-02-03T04:28:55.058Z,129.10
2019-02-03T04:29:55.009Z,128.60
2019-02-03T04:30:54.985Z,127.80
2019-02-03T04:31:54.951Z,133.00
2019-02-03T04:32:54.921Z,136.40
2019-02-03T04:33:54.894Z,124.30
2019-02-03T04:34:54.875Z,125.70
2019-02-03T04:35:54.838Z,128.70
2019-02-03T04:36:54.810Z,130.20
2019-02-03T04:37:54.788Z,126.80
2019-02-03T04:38:58.324Z,127.80
2019-02-03T04:39:54.753Z,125.70
2019-02-03T04:40:54.699Z,125.60
2019-02-03T04:41:54.744Z,121.20
2019-02-03T04:42:54.642Z,116.30
2019-02-03T04:43:54.624Z,126.80
2019-02-03T04:44:54.587Z,124.80
2019-02-03T04:45:54.558Z,121.00
2019-02-03T04:46:54.536Z,117.80
2019-02-03T04:47:54.503Z,113.40
2019-02-03T04:48:54.481Z,118.20
2019-02-03T04:49:54.448Z,115.60
2019-02-03T04:50:54.419Z,113.10
2019-02-03T04:51:54.394Z,113.60
2019-02-03T04:52:54.365Z,116.10
2019-02-03T04:53:54.335Z,121.30
2019-02-03T04:54:54.309Z,114.80
2019-02-03T04:55:54.285Z,118.10
2019-02-03T04:56:54.353Z,114.30
2019-02-03T04:57:54.233Z,115.90
2019-02-03T04:58:54.198Z,110.00
2019-02-03T04:59:54.186Z,109.70
2019-02-03T05:00:54.141Z,112.60
2019-02-03T05:01:54.114Z,107.70
2019-02-03T05:02:54.085Z,111.40
2019-02-03T05:03:54.060Z,107.90
2019-02-03T05:04:54.030Z,114.40
2019-02-03T05:05:54.017Z,106.50
2019-02-03T05:06:53.983Z,101.40
2019-02-03T05:07:53.961Z,104.10
2019-02-03T05:08:53.917Z,101.40
2019-02-03T05:09:53.889Z,94.70
2019-02-03T05:10:53.864Z,102.80
2019-02-03T05:11:53.834Z,99.70
2019-02-03T05:12:53.807Z,97.00
2019-02-03T05:13:53.783Z,97.20
2019-02-03T05:14:53.856Z,96.70
2019-02-03T05:15:53.724Z,96.90
2019-02-03T05:16:53.693Z,99.70
2019-02-03T05:17:53.668Z,96.80
2019-02-03T05:18:53.640Z,98.80
2019-02-03T05:19:53.611Z,103.10
2019-02-03T05:20:53.584Z,97.40
2019-02-03T05:21:53.558Z,94.60
2019-02-03T05:22:53.529Z,99.10
2019-02-03T05:23:53.531Z,91.40
2019-02-03T05:24:53.475Z,97.10
2019-02-03T05:25:54.599Z,91.80
2019-02-03T05:26:53.417Z,90.70
2019-02-03T05:27:53.396Z,96.20
2019-02-03T05:28:53.424Z,99.80
2019-02-03T05:29:53.334Z,95.50
2019-02-03T05:30:53.309Z,92.50
2019-02-03T05:31:53.282Z,90.00
2019-02-03T05:32:53.252Z,90.30
2019-02-03T05:33:53.226Z,84.60
2019-02-03T05:34:53.205Z,90.90
2019-02-03T05:35:53.169Z,92.10
2019-02-03T05:36:53.155Z,91.90
2019-02-03T05:37:53.114Z,88.80
2019-02-03T05:38:55.190Z,88.90
2019-02-03T05:39:53.061Z,84.90
2019-02-03T05:40:53.032Z,87.80
2019-02-03T05:41:53.005Z,83.60
2019-02-03T05:42:52.990Z,85.80
2019-02-03T05:43:52.951Z,84.60
2019-02-03T05:44:52.923Z,87.70
2019-02-03T05:45:52.894Z,87.00
2019-02-03T05:46:52.869Z,84.00
2019-02-03T05:47:52.839Z,82.70
2019-02-03T05:48:52.814Z,87.60
2019-02-03T05:49:52.793Z,83.80
2019-02-03T05:50:52.758Z,84.70
2019-02-03T05:51:52.731Z,82.10
2019-02-03T05:52:52.714Z,84.70
2019-02-03T05:53:52.676Z,87.80
2019-02-03T05:54:52.656Z,85.40
2019-02-03T05:55:52.621Z,81.20
2019-02-03T05:56:52.595Z,80.80
2019-02-03T05:57:52.567Z,79.30
2019-02-03T05:58:52.547Z,79.90
2019-02-03T05:59:52.512Z,82.00
2019-02-03T06:00:52.486Z,81.00
2019-02-03T06:01:52.456Z,75.30
2019-02-03T06:02:52.466Z,81.80
2019-02-03T06:03:52.410Z,80.70
2019-02-03T06:04:52.374Z,74.40
2019-02-03T06:05:52.354Z,76.20
2019-02-03T06:06:52.320Z,79.50
2019-02-03T06:07:52.294Z,81.10
2019-02-03T06:08:52.267Z,78.70
2019-02-03T06:09:52.240Z,85.00
2019-02-03T06:10:52.212Z,82.60
2019-02-03T06:11:52.186Z,84.30
2019-02-03T06:12:52.158Z,77.40
2019-02-03T06:13:52.129Z,74.90
2019-02-03T06:14:52.147Z,76.50
2019-02-03T06:15:52.085Z,81.60
2019-02-03T06:16:52.050Z,82.00
2019-02-03T06:17:52.022Z,81.10
2019-02-03T06:18:51.994Z,82.60
2019-02-03T06:19:51.969Z,81.60
2019-02-03T06:20:51.939Z,86.10
2019-02-03T06:21:51.911Z,78.60
2019-02-03T06:22:51.889Z,80.10
2019-02-03T06:23:51.858Z,79.40
2019-02-03T06:24:52.009Z,81.30
2019-02-03T06:25:51.803Z,84.10
2019-02-03T06:26:51.808Z,81.10
2019-02-03T06:27:51.753Z,82.20
2019-02-03T06:28:51.719Z,80.10
2019-02-03T06:29:51.693Z,80.70
2019-02-03T06:30:51.669Z,80.70
2019-02-03T06:31:51.638Z,77.50
2019-02-03T06:32:51.613Z,77.50
2019-02-03T06:33:51.585Z,81.30
2019-02-03T06:34:51.557Z,77.10
2019-02-03T06:35:51.531Z,68.40
2019-02-03T06:36:52.004Z,72.70
2019-02-03T06:37:51.474Z,71.30
2019-02-03T06:38:51.444Z,70.50
2019-02-03T06:39:51.419Z,71.80
2019-02-03T06:40:51.393Z,70.80
2019-02-03T06:41:51.379Z,69.40
2019-02-03T06:42:51.362Z,63.00
2019-02-03T06:43:51.309Z,63.90
2019-02-03T06:44:51.282Z,67.60
2019-02-03T06:45:51.256Z,68.80
2019-02-03T06:46:51.229Z,64.80
2019-02-03T06:47:51.202Z,56.90
2019-02-03T06:48:51.177Z,60.50
2019-02-03T06:49:51.148Z,62.90
2019-02-03T06:50:51.131Z,61.60
2019-02-03T06:51:51.092Z,60.70
2019-02-03T06:52:51.065Z,56.50
2019-02-03T06:53:51.036Z,60.60
2019-02-03T06:54:51.019Z,62.00
2019-02-03T06:55:50.983Z,57.10
2019-02-03T06:56:50.954Z,60.30
2019-02-03T06:57:50.928Z,56.60
2019-02-03T06:58:50.921Z,57.70
2019-02-03T06:59:51.433Z,55.90
2019-02-03T07:00:50.846Z,56.40
2019-02-03T07:01:50.819Z,52.10
2019-02-03T07:02:50.793Z,51.00
2019-02-03T07:03:50.771Z,53.60
2019-02-03T07:04:50.739Z,50.60
2019-02-03T07:05:50.711Z,48.00
2019-02-03T07:06:50.684Z,48.40
2019-02-03T07:07:50.662Z,43.60
2019-02-03T07:08:50.628Z,44.30
2019-02-03T07:09:59.970Z,43.20
2019-02-03T07:10:50.578Z,44.10
2019-02-03T07:11:50.620Z,45.10
2019-02-03T07:12:50.528Z,47.70
2019-02-03T07:13:50.497Z,44.70
2019-02-03T07:14:50.466Z,46.10
2019-02-03T07:15:50.437Z,38.00
2019-02-03T07:16:50.417Z,44.30
2019-02-03T07:17:50.385Z,45.50
2019-02-03T07:18:50.357Z,38.80
2019-02-03T07:19:50.326Z,40.40
2019-02-03T07:20:50.299Z,39.50
2019-02-03T07:21:50.272Z,45.00
2019-02-03T07:22:50.303Z,39.30
2019-02-03T07:23:50.227Z,38.60
2019-02-03T07:24:50.245Z,43.30
2019-02-03T07:25:50.161Z,39.90
2019-02-03T07:26:50.141Z,40.30
2019-02-03T07:27:50.107Z,40.60
2019-02-03T07:28:50.084Z,42.80
2019-02-03T07:29:50.051Z,42.00
2019-02-03T07:30:50.025Z,40.80
2019-02-03T07:31:50.006Z,35.60
2019-02-03T07:32:49.969Z,39.60
2019-02-03T07:33:49.944Z,37.70
2019-02-03T07:34:49.915Z,39.10
2019-02-03T07:35:49.895Z,38.60
2019-02-03T07:36:49.864Z,36.90
2019-02-03T07:37:49.834Z,39.30
2019-02-03T07:38:49.803Z,35.80
2019-02-03T07:39:49.777Z,36.50
2019-02-03T07:40:49.766Z,35.10
2019-02-03T07:41:49.721Z,38.50
2019-02-03T07:42:49.699Z,35.20
2019-02-03T07:43:49.681Z,36.50
2019-02-03T07:44:49.642Z,36.30
2019-02-03T07:45:49.612Z,36.80
2019-02-03T07:46:49.592Z,35.50
2019-02-03T07:47:49.557Z,37.10
2019-02-03T07:48:49.528Z,31.30
2019-02-03T07:49:49.502Z,30.50
2019-02-03T07:50:49.474Z,35.60
2019-02-03T07:51:49.451Z,32.60
2019-02-03T07:52:49.425Z,35.30
2019-02-03T07:53:49.399Z,32.80
2019-02-03T07:54:49.363Z,30.70
2019-02-03T07:55:49.335Z,32.30
2019-02-03T07:56:49.311Z,31.40
2019-02-03T07:57:49.281Z,34.60
2019-02-03T07:58:49.254Z,35.80
2019-02-03T07:59:49.224Z,32.00
2019-02-03T08:00:49.219Z,31.70
2019-02-03T08:01:49.170Z,29.00
2019-02-03T08:02:49.140Z,31.50
2019-02-03T08:03:49.124Z,31.70
2019-02-03T08:04:49.096Z,32.20
2019-02-03T08:05:49.064Z,33.90
2019-02-03T08:06:49.030Z,31.00
2019-02-03T08:07:49.006Z,31.40
2019-02-03T08:08:48.983Z,30.60
2019-02-03T08:09:48.964Z,27.30
2019-02-03T08:10:48.970Z,30.30
2019-02-03T08:11:48.898Z,29.70
2019-02-03T08:12:48.863Z,27.70
2019-02-03T08:13:48.838Z,27.70
2019-02-03T08:14:48.810Z,26.50
2019-02-03T08:15:48.783Z,28.10
2019-02-03T08:16:48.753Z,29.60
2019-02-03T08:17:48.743Z,26.10
2019-02-03T08:18:48.699Z,23.40
2019-02-03T08:19:48.679Z,28.00
2019-02-03T08:20:48.650Z,25.80
2019-02-03T08:21:48.614Z,26.90
2019-02-03T08:22:48.595Z,27.50
2019-02-03T08:23:51.202Z,25.50
2019-02-03T08:24:48.536Z,22.10
2019-02-03T08:25:48.635Z,26.50
2019-02-03T08:26:48.483Z,22.90
2019-02-03T08:27:48.456Z,25.30
2019-02-03T08:28:48.420Z,21.80
2019-02-03T08:29:48.412Z,24.00
2019-02-03T08:30:48.376Z,24.40
2019-02-03T08:31:48.390Z,24.80
2019-02-03T08:32:48.322Z,21.80
2019-02-03T08:33:48.285Z,26.40
2019-02-03T08:34:48.258Z,24.90
2019-02-03T08:35:48.231Z,22.10
2019-02-03T08:36:48.203Z,21.90
2019-02-03T08:37:48.176Z,24.80
2019-02-03T08:38:48.151Z,24.50
2019-02-03T08:39:48.129Z,23.60
2019-02-03T08:40:48.091Z,23.00
2019-02-03T08:41:48.065Z,23.60
2019-02-03T08:42:48.039Z,26.20
2019-02-03T08:43:48.016Z,23.60
2019-02-03T08:44:47.982Z,22.50
2019-02-03T08:45:47.954Z,22.40
2019-02-03T08:46:47.936Z,22.10
2019-02-03T08:47:47.901Z,21.10
2019-02-03T08:48:47.881Z,19.80
2019-02-03T08:49:47.846Z,21.00
2019-02-03T08:50:47.827Z,20.50
2019-02-03T08:51:47.789Z,21.90
2019-02-03T08:52:47.770Z,19.30
2019-02-03T08:53:47.746Z,22.10
2019-02-03T08:54:57.987Z,20.90
2019-02-03T08:55:47.681Z,21.20
2019-02-03T08:56:47.655Z,22.70
2019-02-03T08:57:47.631Z,20.10
2019-02-03T08:58:47.597Z,15.60
2019-02-03T08:59:47.571Z,20.30
2019-02-03T09:00:47.554Z,21.30
2019-02-03T09:01:47.514Z,22.70
2019-02-03T09:02:47.487Z,17.50
2019-02-03T09:03:47.466Z,18.20
2019-02-03T09:04:47.441Z,24.30
2019-02-03T09:05:47.404Z,21.30
2019-02-03T09:06:47.398Z,20.90
2019-02-03T09:07:47.350Z,20.20
2019-02-03T09:08:47.333Z,21.60
2019-02-03T09:09:47.297Z,16.90
2019-02-03T09:10:48.818Z,19.40
2019-02-03T09:11:47.250Z,22.50
2019-02-03T09:12:47.214Z,19.20
2019-02-03T09:13:47.189Z,21.30
2019-02-03T09:14:47.159Z,20.10
2019-02-03T09:15:47.133Z,21.50
2019-02-03T09:16:47.109Z,18.10
2019-02-03T09:17:47.075Z,16.90
2019-02-03T09:18:47.050Z,19.40
2019-02-03T09:19:47.029Z,19.00
2019-02-03T09:20:48.268Z,19.70
2019-02-03T09:21:46.976Z,22.90
2019-02-03T09:22:46.959Z,18.00
2019-02-03T09:23:46.913Z,19.00
2019-02-03T09:24:46.886Z,20.00
2019-02-03T09:25:46.883Z,20.70
2019-02-03T09:26:46.831Z,21.10
2019-02-03T09:27:46.809Z,19.10
2019-02-03T09:28:46.776Z,19.20
2019-02-03T09:29:46.751Z,14.60
2019-02-03T09:30:46.725Z,17.80
2019-02-03T09:31:46.704Z,18.40
2019-02-03T09:32:46.815Z,15.60
2019-02-03T09:33:46.643Z,16.80
2019-02-03T09:34:46.728Z,18.60
2019-02-03T09:35:46.599Z,17.90
2019-02-03T09:36:46.566Z,19.80
2019-02-03T09:37:46.535Z,16.20
2019-02-03T09:38:46.535Z,15.30
2019-02-03T09:39:46.491Z,16.70
2019-02-03T09:40:46.461Z,20.80
2019-02-03T09:41:46.430Z,18.00
2019-02-03T09:42:47.160Z,18.10
2019-02-03T09:43:46.373Z,16.40
2019-02-03T09:44:46.347Z,18.20
2019-02-03T09:45:46.317Z,19.00
2019-02-03T09:46:46.291Z,18.50
2019-02-03T09:47:46.263Z,17.00
2019-02-03T09:48:46.238Z,19.50
2019-02-03T09:49:46.222Z,18.20
2019-02-03T09:50:46.190Z,16.20
2019-02-03T09:51:46.163Z,15.20
2019-02-03T09:52:46.135Z,17.40
2019-02-03T09:53:46.164Z,19.90
2019-02-03T09:54:46.075Z,14.50
2019-02-03T09:55:46.047Z,14.80
2019-02-03T09:56:46.037Z,16.00
2019-02-03T09:57:46.012Z,14.60
2019-02-03T09:58:45.970Z,13.70
2019-02-03T09:59:45.950Z,13.40
2019-02-03T10:00:45.923Z,14.80
2019-02-03T10:01:45.901Z,13.50
2019-02-03T10:02:45.873Z,13.90
2019-02-03T10:03:45.856Z,14.10
2019-02-03T10:04:45.819Z,12.00
2019-02-03T10:05:45.796Z,13.00
2019-02-03T10:06:45.772Z,12.10
2019-02-03T10:07:45.763Z,14.50
2019-02-03T10:08:45.721Z,12.40
2019-02-03T10:09:45.695Z,12.20
2019-02-03T10:10:45.726Z,15.70
2019-02-03T10:11:45.660Z,13.30
2019-02-03T10:12:45.628Z,11.80
2019-02-03T10:13:45.602Z,10.80
2019-02-03T10:14:45.587Z,13.20
2019-02-03T10:15:45.605Z,15.50
2019-02-03T10:16:47.520Z,14.60
2019-02-03T10:17:45.523Z,11.10
2019-02-03T10:18:45.484Z,13.20
2019-02-03T10:19:45.463Z,11.20
2019-02-03T10:20:45.593Z,12.90
2019-02-03T10:21:45.416Z,12.40
2019-02-03T10:22:45.396Z,12.30
2019-02-03T10:23:45.371Z,10.90
2019-02-03T10:24:45.365Z,10.50
2019-02-03T10:25:45.333Z,14.40
2019-02-03T10:26:45.314Z,11.20
2019-02-03T10:27:45.299Z,12.60
2019-02-03T10:28:46.637Z,14.80
2019-02-03T10:29:45.235Z,11.40
2019-02-03T10:30:45.216Z,11.30
2019-02-03T10:31:45.241Z,14.20
2019-02-03T10:32:45.169Z,11.90
2019-02-03T10:33:45.146Z,12.30
2019-02-03T10:34:45.124Z,13.10
2019-02-03T10:35:45.103Z,13.90
2019-02-03T10:36:45.084Z,11.30
2019-02-03T10:37:45.081Z,11.60
2019-02-03T10:38:45.043Z,13.90
2019-02-03T10:39:45.018Z,10.80
2019-02-03T10:40:44.992Z,13.90
2019-02-03T10:41:44.971Z,13.80
2019-02-03T10:42:44.949Z,10.80
2019-02-03T10:43:44.937Z,10.10
2019-02-03T10:44:44.907Z,10.10
2019-02-03T10:45:44.885Z,10.80
2019-02-03T10:46:44.864Z,8.60
2019-02-03T10:47:44.854Z,10.00
2019-02-03T10:48:44.823Z,10.50
2019-02-03T10:49:46.690Z,12.90
2019-02-03T10:50:44.778Z,13.60
2019-02-03T10:51:44.765Z,12.40
2019-02-03T10:52:44.735Z,9.60
2019-02-03T10:53:44.715Z,11.80
2019-02-03T10:54:44.692Z,13.00
2019-02-03T10:55:44.675Z,12.30
2019-02-03T10:56:44.662Z,10.30
2019-02-03T10:57:44.627Z,12.60
2019-02-03T10:58:44.608Z,10.60
2019-02-03T10:59:44.594Z,9.80
2019-02-03T11:00:44.564Z,10.70
2019-02-03T11:01:44.549Z,11.20
2019-02-03T11:02:44.538Z,11.50
2019-02-03T11:03:44.499Z,10.10
2019-02-03T11:04:44.479Z,12.30
2019-02-03T11:05:44.455Z,15.50
2019-02-03T11:06:44.431Z,11.90
2019-02-03T11:07:44.416Z,11.00
2019-02-03T11:08:44.402Z,9.20
2019-02-03T11:09:44.371Z,12.50
2019-02-03T11:10:44.455Z,11.50
2019-02-03T11:11:44.328Z,12.40
2019-02-03T11:12:44.308Z,12.70
2019-02-03T11:13:44.278Z,11.30
2019-02-03T11:14:44.266Z,9.70
2019-02-03T11:15:44.253Z,12.70
2019-02-03T11:16:44.226Z,11.80
2019-02-03T11:17:44.190Z,12.70
2019-02-03T11:18:44.168Z,9.30
2019-02-03T11:19:44.163Z,8.30
2019-02-03T11:20:44.134Z,13.50
2019-02-03T11:21:44.112Z,11.00
2019-02-03T11:22:44.089Z,13.20
2019-02-03T11:23:44.075Z,13.10
2019-02-03T11:24:44.037Z,10.60
2019-02-03T11:25:44.027Z,13.70
2019-02-03T11:26:43.996Z,12.20
2019-02-03T11:27:43.976Z,13.90
2019-02-03T11:28:43.948Z,11.00
2019-02-03T11:29:43.926Z,12.30
2019-02-03T11:30:43.917Z,9.30
2019-02-03T11:31:43.896Z,9.10
2019-02-03T11:32:43.863Z,11.10
2019-02-03T11:33:43.844Z,10.20
2019-02-03T11:34:43.820Z,10.80
2019-02-03T11:35:43.797Z,14.40
2019-02-03T11:36:43.778Z,9.60
2019-02-03T11:37:43.761Z,12.70
2019-02-03T11:38:43.732Z,14.60
2019-02-03T11:39:43.710Z,14.90
2019-02-03T11:40:43.715Z,9.90
2019-02-03T11:41:49.421Z,7.70
2019-02-03T11:42:43.645Z,10.50
2019-02-03T11:43:43.632Z,14.20
2019-02-03T11:44:43.655Z,10.60
2019-02-03T11:45:43.581Z,13.20
2019-02-03T11:46:43.558Z,12.70
2019-02-03T11:47:43.542Z,10.40
2019-02-03T11:48:43.517Z,9.60
2019-02-03T11:49:43.495Z,10.50
2019-02-03T11:50:43.478Z,10.80
2019-02-03T11:51:43.462Z,17.20
2019-02-03T11:52:43.427Z,12.10
2019-02-03T11:53:43.415Z,11.30
2019-02-03T11:54:43.386Z,10.60
2019-02-03T11:55:43.363Z,9.20
2019-02-03T11:56:43.347Z,9.00
2019-02-03T11:57:43.326Z,11.10
2019-02-03T11:58:43.304Z,10.30
2019-02-03T11:59:43.286Z,13.90
2019-02-03T12:00:43.262Z,10.10
2019-02-03T12:01:43.238Z,8.30
2019-02-03T12:02:43.209Z,10.20
2019-02-03T12:03:43.192Z,9.70
2019-02-03T12:04:43.163Z,11.50
2019-02-03T12:05:43.141Z,11.00
2019-02-03T12:06:43.119Z,8.20
2019-02-03T12:07:43.111Z,9.80
2019-02-03T12:08:43.086Z,11.80
2019-02-03T12:09:43.055Z,15.40
2019-02-03T12:10:43.030Z,12.20
2019-02-03T12:11:43.009Z,12.40
2019-02-03T12:12:42.986Z,8.90
2019-02-03T12:13:42.965Z,11.30
2019-02-03T12:14:42.956Z,9.80
2019-02-03T12:15:42.920Z,9.90
2019-02-03T12:16:42.895Z,9.10
2019-02-03T12:17:42.932Z,8.80
2019-02-03T12:18:42.854Z,13.60
2019-02-03T12:19:42.829Z,11.70
2019-02-03T12:20:42.808Z,15.30
2019-02-03T12:21:42.784Z,10.00
2019-02-03T12:22:42.770Z,10.90
2019-02-03T12:23:42.742Z,12.60
2019-02-03T12:24:42.720Z,12.70
2019-02-03T12:25:42.701Z,12.10
2019-02-03T12:26:42.673Z,11.60
2019-02-03T12:27:42.658Z,10.60
2019-02-03T12:28:42.632Z,8.50
2019-02-03T12:29:42.619Z,11.30
2019-02-03T12:30:42.588Z,9.70
2019-02-03T12:31:42.562Z,10.20
2019-02-03T12:32:42.539Z,10.80
2019-02-03T12:33:42.526Z,10.10
2019-02-03T12:34:42.501Z,10.60
2019-02-03T12:35:42.474Z,10.20
2019-02-03T12:36:42.558Z,9.70
2019-02-03T12:37:42.430Z,11.20
2019-02-03T12:38:42.444Z,11.80
2019-02-03T12:39:42.397Z,9.70
2019-02-03T12:40:42.370Z,9.10
2019-02-03T12:41:42.346Z,10.70
2019-02-03T12:42:42.322Z,9.20